createdAt,value
2018-12-11T00:00:36.634Z,1.11
2018-12-11T00:03:05.105Z,1.02
2018-12-11T00:05:33.571Z,1.01
2018-12-11T00:08:02.043Z,0.53
2018-12-11T00:10:30.482Z,0.91
2018-12-11T00:12:59.323Z,0.92
2018-12-11T00:15:27.799Z,0.86
2018-12-11T00:17:56.232Z,0.77
2018-12-11T00:20:25.551Z,0.69
2018-12-11T00:22:54.062Z,0.63
2018-12-11T00:25:22.543Z,0.58
2018-12-11T00:27:50.979Z,0.37
2018-12-11T00:30:19.463Z,0.46
2018-12-11T00:32:47.866Z,0.40
2018-12-11T00:35:16.295Z,0.36
2018-12-11T00:37:44.782Z,0.34
2018-12-11T00:40:13.250Z,0.35
2018-12-11T00:42:41.662Z,0.38
2018-12-11T00:45:10.112Z,0.47
2018-12-11T00:47:38.885Z,0.41
2018-12-11T00:50:07.928Z,0.41
2018-12-11T00:52:36.403Z,0.39
2018-12-11T00:55:04.876Z,0.34
2018-12-11T00:57:33.344Z,0.34
2018-12-11T01:00:01.829Z,0.29
2018-12-11T01:02:30.229Z,-0.74
2018-12-11T01:04:58.723Z,0.46
2018-12-11T01:07:27.219Z,0.56
2018-12-11T01:09:55.668Z,0.61
2018-12-11T01:12:24.142Z,0.59
2018-12-11T01:14:53.940Z,0.48
2018-12-11T01:17:22.382Z,0.42
2018-12-11T01:19:50.870Z,0.38
2018-12-11T01:22:19.347Z,0.40
2018-12-11T01:24:49.198Z,0.41
2018-12-11T01:27:17.594Z,0.44
2018-12-11T01:29:46.307Z,0.30
2018-12-11T01:32:14.769Z,0.53
2018-12-11T01:34:43.171Z,0.42
2018-12-11T01:37:11.665Z,0.34
2018-12-11T01:39:40.152Z,0.30
2018-12-11T01:42:08.929Z,0.28
2018-12-11T01:44:37.417Z,0.28
2018-12-11T01:47:05.855Z,0.30
2018-12-11T01:49:34.269Z,0.30
2018-12-11T01:52:02.765Z,0.24
2018-12-11T01:54:31.232Z,0.21
2018-12-11T01:56:59.910Z,0.20
2018-12-11T01:59:28.409Z,-1.15
2018-12-11T02:01:56.844Z,0.17
2018-12-11T02:04:25.490Z,0.11
2018-12-11T02:06:53.973Z,0.06
2018-12-11T02:09:22.414Z,0.02
2018-12-11T02:11:50.864Z,0.01
2018-12-11T02:14:19.389Z,0.03
2018-12-11T02:16:47.823Z,-0.05
2018-12-11T02:19:16.712Z,-0.13
2018-12-11T02:21:45.229Z,-0.18
2018-12-11T02:24:14.404Z,-0.17
2018-12-11T02:26:43.104Z,-0.16
2018-12-11T02:29:11.614Z,-0.21
2018-12-11T02:31:40.077Z,-0.16
2018-12-11T02:34:08.525Z,-0.08
2018-12-11T02:36:37.049Z,0.05
2018-12-11T02:39:07.266Z,0.01
2018-12-11T02:41:35.951Z,-0.11
2018-12-11T02:44:04.438Z,-0.19
2018-12-11T02:46:33.130Z,-0.30
2018-12-11T02:49:01.575Z,-0.31
2018-12-11T02:51:30.111Z,-0.39
2018-12-11T02:53:58.583Z,-0.42
2018-12-11T02:56:27.085Z,-0.44
2018-12-11T02:58:55.608Z,-0.43
2018-12-11T03:01:24.039Z,-0.51
2018-12-11T03:03:52.451Z,-0.56
2018-12-11T03:06:22.731Z,-0.61
2018-12-11T03:08:51.304Z,-0.63
2018-12-11T03:11:19.785Z,-0.68
2018-12-11T03:13:48.280Z,-0.76
2018-12-11T03:16:17.123Z,-0.87
2018-12-11T03:18:45.996Z,-0.87
2018-12-11T03:21:14.481Z,-0.90
2018-12-11T03:23:42.911Z,-0.96
2018-12-11T03:26:11.940Z,-1.01
2018-12-11T03:28:40.453Z,-0.84
2018-12-11T03:31:08.952Z,-0.76
2018-12-11T03:33:37.425Z,-0.72
2018-12-11T03:36:05.943Z,-0.86
2018-12-11T03:38:34.628Z,-0.90
2018-12-11T03:41:03.302Z,-0.94
2018-12-11T03:43:32.003Z,-0.94
2018-12-11T03:46:00.686Z,-0.94
2018-12-11T03:48:29.574Z,-0.93
2018-12-11T03:50:58.133Z,-0.93
2018-12-11T03:53:26.893Z,-0.93
2018-12-11T03:55:55.751Z,-0.91
2018-12-11T03:58:24.268Z,-0.86
2018-12-11T04:00:52.701Z,-0.82
2018-12-11T04:03:21.169Z,-0.80
2018-12-11T04:05:49.661Z,-0.77
2018-12-11T04:08:18.141Z,-0.75
2018-12-11T04:10:46.625Z,-0.71
2018-12-11T04:13:15.120Z,-0.67
2018-12-11T04:15:43.565Z,-0.64
2018-12-11T04:18:12.038Z,-0.62
2018-12-11T04:20:40.553Z,-0.66
2018-12-11T04:23:09.004Z,-0.66
2018-12-11T04:25:37.671Z,-0.67
2018-12-11T04:28:07.714Z,-0.72
2018-12-11T04:30:38.094Z,-0.74
2018-12-11T04:33:06.560Z,-0.79
2018-12-11T04:35:35.038Z,-0.82
2018-12-11T04:38:03.745Z,-0.85
2018-12-11T04:40:32.233Z,-0.87
2018-12-11T04:43:01.352Z,-0.87
2018-12-11T04:45:30.036Z,-0.87
2018-12-11T04:47:58.740Z,-0.84
2018-12-11T04:50:27.279Z,-0.90
2018-12-11T04:52:55.715Z,-0.90
2018-12-11T04:55:24.155Z,-0.93
2018-12-11T04:57:52.635Z,-0.93
2018-12-11T05:00:22.051Z,-0.90
2018-12-11T05:02:51.042Z,-0.85
2018-12-11T05:05:19.553Z,-0.88
2018-12-11T05:07:48.691Z,-0.90
2018-12-11T05:10:19.674Z,-0.93
2018-12-11T05:12:48.195Z,-0.93
2018-12-11T05:15:16.631Z,-0.95
2018-12-11T05:17:45.337Z,-1.12
2018-12-11T05:20:13.826Z,-1.19
2018-12-11T05:22:42.300Z,-1.23
2018-12-11T05:25:10.762Z,-1.24
2018-12-11T05:27:39.281Z,-1.22
2018-12-11T05:30:08.702Z,-1.28
2018-12-11T05:32:37.204Z,-1.33
2018-12-11T05:35:05.819Z,-1.33
2018-12-11T05:37:34.250Z,-1.30
2018-12-11T05:40:02.765Z,-1.27
2018-12-11T05:42:31.274Z,-1.28
2018-12-11T05:44:59.760Z,-1.25
2018-12-11T05:47:28.459Z,-1.28
2018-12-11T05:49:56.978Z,-1.26
2018-12-11T05:52:26.295Z,-1.26
2018-12-11T05:54:54.813Z,-1.31
2018-12-11T05:57:28.642Z,-1.30
2018-12-11T06:00:03.114Z,-1.30
2018-12-11T06:02:32.660Z,-1.33
2018-12-11T06:05:01.655Z,-1.33
2018-12-11T06:07:30.821Z,-1.33
2018-12-11T06:10:00.256Z,-1.61
2018-12-11T06:15:30.214Z,-1.42
2018-12-11T06:17:58.892Z,-1.41
2018-12-11T06:20:27.681Z,-1.50
2018-12-11T06:22:56.447Z,-1.49
2018-12-11T06:25:25.003Z,-1.35
2018-12-11T06:27:53.740Z,-1.37
2018-12-11T06:30:22.672Z,-1.39
2018-12-11T06:32:52.197Z,-1.41
2018-12-11T06:35:21.069Z,-1.45
2018-12-11T06:37:49.568Z,-1.43
2018-12-11T06:40:18.108Z,-1.45
2018-12-11T06:42:46.839Z,-1.43
2018-12-11T06:45:15.729Z,-1.42
2018-12-11T06:47:44.229Z,-1.45
2018-12-11T06:50:12.891Z,-1.47
2018-12-11T06:52:41.435Z,-1.46
2018-12-11T06:55:10.244Z,-1.46
2018-12-11T06:57:38.772Z,-1.45
2018-12-11T07:00:08.483Z,-1.45
2018-12-11T07:02:36.973Z,-1.43
2018-12-11T07:05:05.710Z,-1.49
2018-12-11T07:07:34.212Z,-1.50
2018-12-11T07:10:03.207Z,-1.54
2018-12-11T07:12:32.548Z,-1.56
2018-12-11T07:15:01.032Z,-1.55
2018-12-11T07:17:29.559Z,-1.48
2018-12-11T07:19:58.376Z,-1.38
2018-12-11T07:22:28.465Z,-0.01
2018-12-11T07:24:58.854Z,0.86
2018-12-11T07:27:27.708Z,1.35
2018-12-11T07:29:56.150Z,1.95
2018-12-11T07:32:26.385Z,2.36
2018-12-11T07:34:54.860Z,2.58
2018-12-11T07:37:23.319Z,2.62
2018-12-11T07:39:51.792Z,2.52
2018-12-11T07:42:20.958Z,2.94
2018-12-11T07:44:49.408Z,3.09
2018-12-11T07:47:18.540Z,2.72
2018-12-11T07:49:46.986Z,2.06
2018-12-11T07:52:15.410Z,1.71
2018-12-11T07:54:43.899Z,1.31
2018-12-11T07:57:12.376Z,1.08
2018-12-11T07:59:41.071Z,0.86
2018-12-11T08:02:09.595Z,0.83
2018-12-11T08:04:38.038Z,1.02
2018-12-11T08:07:06.518Z,1.33
2018-12-11T08:09:35.071Z,1.66
2018-12-11T08:12:08.237Z,2.10
2018-12-11T08:14:34.621Z,2.31
2018-12-11T08:17:03.127Z,2.35
2018-12-11T08:19:31.566Z,2.14
2018-12-11T08:22:00.031Z,2.06
2018-12-11T08:24:28.555Z,2.07
2018-12-11T08:26:56.996Z,2.11
2018-12-11T08:29:25.473Z,2.02
2018-12-11T08:31:53.960Z,2.10
2018-12-11T08:34:22.456Z,2.15
2018-12-11T08:36:50.905Z,2.21
2018-12-11T08:39:19.405Z,2.30
2018-12-11T08:41:47.851Z,2.56
2018-12-11T08:44:16.364Z,2.90
2018-12-11T08:46:44.886Z,3.12
2018-12-11T08:49:13.397Z,3.16
2018-12-11T08:51:41.831Z,3.14
2018-12-11T08:54:10.345Z,3.07
2018-12-11T08:56:38.782Z,3.13
2018-12-11T08:59:07.290Z,2.97
2018-12-11T09:01:35.815Z,3.07
2018-12-11T09:04:04.296Z,2.95
2018-12-11T09:06:32.743Z,2.93
2018-12-11T09:09:01.291Z,2.88
2018-12-11T09:11:29.828Z,2.88
2018-12-11T09:13:58.268Z,2.66
2018-12-11T09:16:27.031Z,2.66
2018-12-11T09:18:55.487Z,2.76
2018-12-11T09:21:24.281Z,2.79
2018-12-11T09:23:54.319Z,2.93
2018-12-11T09:26:22.952Z,3.06
2018-12-11T09:28:51.652Z,3.04
2018-12-11T09:31:21.224Z,3.17
2018-12-11T09:33:50.092Z,3.40
2018-12-11T09:36:18.546Z,3.65
2018-12-11T09:38:47.042Z,3.79
2018-12-11T09:41:15.504Z,3.96
2018-12-11T09:43:44.943Z,4.04
2018-12-11T09:46:13.412Z,3.95
2018-12-11T09:48:41.863Z,4.01
2018-12-11T09:51:10.331Z,4.03
2018-12-11T09:53:39.236Z,4.12
2018-12-11T09:56:07.701Z,4.29
2018-12-11T09:58:36.216Z,4.27
2018-12-11T10:01:05.703Z,4.43
2018-12-11T10:03:34.410Z,4.47
2018-12-11T10:06:03.197Z,4.47
2018-12-11T10:08:31.675Z,4.50
2018-12-11T10:11:00.122Z,4.48
2018-12-11T10:13:28.732Z,4.50
2018-12-11T10:15:57.215Z,4.59
2018-12-11T10:18:25.695Z,4.71
2018-12-11T10:20:54.126Z,4.81
2018-12-11T10:23:22.947Z,4.85
2018-12-11T10:25:51.389Z,4.80
2018-12-11T10:28:20.089Z,4.68
2018-12-11T10:30:48.576Z,4.86
2018-12-11T10:33:17.533Z,4.72
2018-12-11T10:35:47.843Z,4.65
2018-12-11T10:38:16.318Z,4.64
2018-12-11T10:40:45.677Z,4.53
2018-12-11T10:43:15.727Z,4.52
2018-12-11T10:45:44.156Z,4.55
2018-12-11T10:48:12.870Z,4.55
2018-12-11T10:50:41.386Z,4.57
2018-12-11T10:53:09.855Z,4.54
2018-12-11T10:55:38.311Z,4.54
2018-12-11T10:58:07.390Z,4.52
2018-12-11T11:00:41.498Z,4.56
2018-12-11T11:03:10.563Z,4.46
2018-12-11T11:05:38.980Z,4.49
2018-12-11T11:08:07.408Z,4.50
2018-12-11T11:10:35.911Z,4.48
2018-12-11T11:13:04.425Z,4.50
2018-12-11T11:15:32.967Z,4.46
2018-12-11T11:18:01.444Z,4.45
2018-12-11T11:20:29.902Z,4.42
2018-12-11T11:22:58.365Z,4.37
2018-12-11T11:25:27.462Z,2.24
2018-12-11T11:27:55.936Z,4.45
2018-12-11T11:30:24.442Z,4.44
2018-12-11T11:32:52.950Z,4.50
2018-12-11T11:35:21.672Z,4.47
2018-12-11T11:37:50.143Z,4.42
2018-12-11T11:40:18.754Z,4.44
2018-12-11T11:42:47.306Z,4.50
2018-12-11T11:45:15.738Z,4.52
2018-12-11T11:47:44.245Z,4.55
2018-12-11T11:50:14.011Z,4.58
2018-12-11T11:52:42.439Z,4.59
2018-12-11T11:55:10.921Z,4.68
2018-12-11T11:57:39.387Z,4.60
2018-12-11T12:00:10.233Z,4.76
2018-12-11T12:02:38.711Z,5.06
2018-12-11T12:05:07.308Z,4.93
2018-12-11T12:07:37.584Z,4.70
2018-12-11T12:10:07.882Z,4.57
2018-12-11T12:12:36.952Z,4.56
2018-12-11T12:15:06.759Z,4.58
2018-12-11T12:17:35.374Z,4.75
2018-12-11T12:20:07.183Z,4.93
2018-12-11T12:22:35.661Z,4.96
2018-12-11T12:25:04.843Z,5.04
2018-12-11T12:27:33.307Z,5.40
2018-12-11T12:30:01.770Z,5.20
2018-12-11T12:32:30.216Z,5.24
2018-12-11T12:34:58.671Z,5.47
2018-12-11T12:37:27.188Z,5.51
2018-12-11T12:39:55.644Z,5.27
2018-12-11T12:42:24.059Z,5.20
2018-12-11T12:44:52.524Z,5.07
2018-12-11T12:47:20.963Z,5.39
2018-12-11T12:49:50.799Z,5.36
2018-12-11T12:52:19.632Z,5.46
2018-12-11T12:54:48.361Z,5.55
2018-12-11T12:57:16.823Z,5.65
2018-12-11T12:59:45.331Z,5.54
2018-12-11T13:02:13.747Z,5.46
2018-12-11T13:04:42.163Z,5.50
2018-12-11T13:07:10.644Z,5.68
2018-12-11T13:09:39.089Z,5.41
2018-12-11T13:12:07.494Z,5.33
2018-12-11T13:14:35.991Z,5.47
2018-12-11T13:17:06.133Z,5.44
2018-12-11T13:19:34.556Z,5.60
2018-12-11T13:22:03.058Z,5.66
2018-12-11T13:24:31.503Z,5.60
2018-12-11T13:26:59.947Z,5.60
2018-12-11T13:29:28.457Z,5.41
2018-12-11T13:31:57.153Z,5.52
2018-12-11T13:34:25.704Z,5.64
2018-12-11T13:36:54.188Z,5.48
2018-12-11T13:39:22.657Z,5.73
2018-12-11T13:41:51.137Z,5.77
2018-12-11T13:44:19.815Z,5.76
2018-12-11T13:46:48.451Z,5.71
2018-12-11T13:49:16.901Z,5.65
2018-12-11T13:51:45.409Z,5.65
2018-12-11T13:54:13.856Z,5.58
2018-12-11T13:56:42.307Z,5.48
2018-12-11T13:59:10.821Z,5.51
2018-12-11T14:01:39.282Z,5.47
2018-12-11T14:04:07.765Z,5.36
2018-12-11T14:06:36.274Z,5.39
2018-12-11T14:12:09.782Z,5.29
2018-12-11T14:14:38.509Z,5.33
2018-12-11T14:17:07.031Z,5.30
2018-12-11T14:19:35.534Z,5.15
2018-12-11T14:22:04.092Z,5.07
2018-12-11T14:24:32.796Z,4.95
2018-12-11T14:27:01.319Z,5.01
2018-12-11T14:29:29.770Z,4.97
2018-12-11T14:31:58.219Z,4.93
2018-12-11T14:34:26.714Z,4.32
2018-12-11T14:36:55.144Z,4.78
2018-12-11T14:39:23.574Z,4.68
2018-12-11T14:41:52.143Z,4.52
2018-12-11T14:44:20.642Z,4.55
2018-12-11T14:46:49.095Z,4.48
2018-12-11T14:49:17.574Z,4.34
2018-12-11T14:51:47.877Z,4.17
2018-12-11T14:54:16.311Z,4.02
2018-12-11T14:56:44.759Z,3.87
2018-12-11T14:59:13.206Z,3.76
2018-12-11T15:01:41.941Z,3.70
2018-12-11T15:04:12.137Z,3.65
2018-12-11T15:06:40.603Z,3.58
2018-12-11T15:09:15.232Z,3.53
2018-12-11T15:11:43.931Z,3.49
2018-12-11T15:14:12.611Z,3.48
2018-12-11T15:16:41.311Z,3.46
2018-12-11T15:19:09.976Z,3.42
2018-12-11T15:21:38.443Z,3.37
2018-12-11T15:24:06.971Z,3.32
2018-12-11T15:26:35.424Z,3.24
2018-12-11T15:29:04.163Z,3.17
2018-12-11T15:31:32.647Z,3.32
2018-12-11T15:34:01.115Z,3.22
2018-12-11T15:36:29.560Z,2.37
2018-12-11T15:38:58.050Z,3.01
2018-12-11T15:41:26.487Z,2.93
2018-12-11T15:43:56.646Z,2.88
2018-12-11T15:46:25.199Z,2.83
2018-12-11T15:48:53.661Z,2.75
2018-12-11T15:51:22.106Z,2.93
2018-12-11T15:53:50.601Z,3.04
2018-12-11T15:56:19.471Z,2.86
2018-12-11T15:58:47.901Z,2.74
2018-12-11T16:01:16.416Z,2.68
2018-12-11T16:03:44.879Z,2.63
2018-12-11T16:06:13.347Z,2.58
2018-12-11T16:08:41.867Z,2.49
2018-12-11T16:11:10.379Z,2.41
2018-12-11T16:13:38.871Z,2.34
2018-12-11T16:16:07.410Z,2.31
2018-12-11T16:18:35.902Z,2.27
2018-12-11T16:21:04.402Z,2.27
2018-12-11T16:23:32.967Z,2.26
2018-12-11T16:26:01.490Z,2.29
2018-12-11T16:28:29.966Z,2.32
2018-12-11T16:30:58.461Z,2.36
2018-12-11T16:33:26.973Z,2.37
2018-12-11T16:35:55.461Z,2.39
2018-12-11T16:38:23.956Z,2.42
2018-12-11T16:40:52.691Z,2.43
2018-12-11T16:43:21.183Z,2.48
2018-12-11T16:45:49.733Z,2.52
2018-12-11T16:48:18.217Z,2.50
2018-12-11T16:50:46.739Z,2.50
2018-12-11T16:53:15.238Z,2.50
2018-12-11T16:55:44.347Z,2.48
2018-12-11T16:58:12.900Z,2.46
2018-12-11T17:00:41.413Z,2.46
2018-12-11T17:03:09.884Z,2.45
2018-12-11T17:05:38.519Z,2.41
2018-12-11T17:08:07.227Z,2.37
2018-12-11T17:10:37.447Z,2.35
2018-12-11T17:13:06.066Z,2.34
2018-12-11T17:15:36.140Z,2.35
2018-12-11T17:18:04.689Z,2.30
2018-12-11T17:20:34.996Z,2.28
2018-12-11T17:23:03.621Z,2.27
2018-12-11T17:25:33.213Z,2.27
2018-12-11T17:28:02.307Z,2.24
2018-12-11T17:30:31.514Z,2.26
2018-12-11T17:33:00.755Z,2.26
2018-12-11T17:35:29.440Z,2.29
2018-12-11T17:37:58.035Z,2.33
2018-12-11T17:40:26.596Z,2.38
2018-12-11T17:42:55.235Z,1.82
2018-12-11T17:45:26.500Z,2.40
2018-12-11T17:47:55.113Z,2.40
2018-12-11T17:50:23.711Z,2.38
2018-12-11T17:52:52.394Z,2.37
2018-12-11T17:55:22.028Z,2.35
2018-12-11T17:57:50.702Z,2.31
2018-12-11T18:00:19.406Z,2.28
2018-12-11T18:05:23.492Z,2.30
2018-12-11T18:07:53.594Z,2.35
2018-12-11T18:10:22.162Z,2.55
2018-12-11T18:12:51.598Z,3.41
2018-12-11T18:15:20.365Z,3.42
2018-12-11T18:17:48.930Z,3.43
2018-12-11T18:20:18.203Z,3.83
2018-12-11T18:22:46.797Z,3.60
2018-12-11T18:25:15.456Z,3.55
2018-12-11T18:30:20.689Z,3.43
2018-12-11T18:32:49.341Z,3.32
2018-12-11T18:35:18.574Z,3.28
2018-12-11T18:37:47.331Z,3.33
2018-12-11T18:40:16.103Z,3.15
2018-12-11T18:42:45.686Z,3.03
2018-12-11T18:45:15.300Z,3.02
2018-12-11T18:47:50.095Z,3.07
2018-12-11T18:50:21.974Z,3.00
2018-12-11T18:52:53.491Z,2.83
2018-12-11T18:55:23.168Z,2.67
2018-12-11T19:00:26.287Z,2.41
2018-12-11T19:02:57.162Z,2.32
2018-12-11T19:05:28.210Z,2.23
2018-12-11T19:08:00.280Z,2.16
2018-12-11T19:10:30.070Z,2.12
2018-12-11T19:12:59.849Z,2.13
2018-12-11T19:15:29.928Z,2.08
2018-12-11T19:17:59.640Z,2.11
2018-12-11T19:20:33.660Z,1.88
2018-12-11T19:23:09.670Z,1.67
2018-12-11T19:25:39.148Z,1.64
2018-12-11T19:28:07.952Z,1.58
2018-12-11T19:30:39.023Z,1.64
2018-12-11T19:33:10.474Z,1.61
2018-12-11T19:35:41.800Z,1.60
2018-12-11T19:38:13.845Z,1.59
2018-12-11T19:40:44.126Z,1.57
2018-12-11T19:43:12.785Z,1.55
2018-12-11T19:45:46.031Z,1.51
2018-12-11T19:48:14.638Z,1.48
2018-12-11T19:50:43.845Z,1.42
2018-12-11T19:53:16.836Z,1.38
2018-12-11T19:55:46.587Z,1.39
2018-12-11T19:58:16.326Z,1.37
2018-12-11T20:00:45.007Z,1.37
2018-12-11T20:03:17.800Z,1.37
2018-12-11T20:05:46.782Z,1.35
2018-12-11T20:08:16.708Z,0.56
2018-12-11T20:10:48.968Z,1.47
2018-12-11T20:13:21.878Z,1.57
2018-12-11T20:15:54.568Z,1.49
2018-12-11T20:18:24.491Z,1.46
2018-12-11T20:20:55.323Z,1.41
2018-12-11T20:26:00.751Z,1.44
2018-12-11T20:28:32.300Z,1.44
2018-12-11T20:31:01.038Z,1.45
2018-12-11T20:33:30.715Z,1.44
2018-12-11T20:36:01.399Z,0.19
2018-12-11T20:38:35.791Z,1.46
2018-12-11T20:41:06.804Z,1.47
2018-12-11T20:43:36.114Z,1.47
2018-12-11T20:46:05.706Z,1.47
2018-12-11T20:48:35.313Z,1.44
2018-12-11T20:51:05.150Z,1.42
2018-12-11T20:53:34.210Z,1.41
2018-12-11T20:56:03.363Z,1.41
2018-12-11T21:01:07.870Z,1.40
2018-12-11T21:03:36.474Z,1.38
2018-12-11T21:06:06.192Z,1.32
2018-12-11T21:08:36.132Z,1.26
2018-12-11T21:11:04.837Z,1.17
2018-12-11T21:13:34.985Z,1.14
2018-12-11T21:16:04.582Z,1.03
2018-12-11T21:21:10.378Z,0.95
2018-12-11T21:23:39.053Z,0.97
2018-12-11T21:26:08.880Z,1.14
2018-12-11T21:28:38.520Z,1.53
2018-12-11T21:31:08.790Z,1.44
2018-12-11T21:33:38.046Z,1.34
2018-12-11T21:36:06.720Z,1.26
2018-12-11T21:38:35.467Z,1.20
2018-12-11T21:41:04.280Z,1.18
2018-12-11T21:43:33.248Z,1.16
2018-12-11T21:46:01.803Z,1.17
2018-12-11T21:48:30.404Z,1.20
2018-12-11T21:50:59.113Z,1.08
2018-12-11T21:53:27.885Z,1.06
2018-12-11T21:55:56.371Z,1.07
2018-12-11T21:58:24.891Z,1.05
2018-12-11T22:00:53.640Z,1.14
2018-12-11T22:03:22.607Z,1.17
2018-12-11T22:05:52.341Z,1.14
2018-12-11T22:08:21.316Z,1.12
2018-12-11T22:10:49.766Z,1.00
2018-12-11T22:13:18.295Z,0.96
2018-12-11T22:15:46.735Z,0.98
2018-12-11T22:18:15.214Z,0.99
2018-12-11T22:20:43.684Z,1.03
2018-12-11T22:23:12.175Z,1.11
2018-12-11T22:25:40.717Z,1.19
2018-12-11T22:28:09.208Z,1.31
2018-12-11T22:30:38.050Z,1.32
2018-12-11T22:33:06.500Z,1.32
2018-12-11T22:35:34.983Z,1.29
2018-12-11T22:38:03.730Z,1.28
2018-12-11T22:40:32.162Z,1.27
2018-12-11T22:43:00.663Z,1.29
2018-12-11T22:45:29.105Z,1.25
2018-12-11T22:47:57.542Z,1.22
2018-12-11T22:50:26.052Z,1.17
2018-12-11T22:52:54.504Z,1.08
2018-12-11T22:55:22.947Z,1.06
2018-12-11T22:57:51.421Z,1.02
2018-12-11T23:00:20.032Z,1.00
2018-12-11T23:02:48.443Z,1.00
2018-12-11T23:05:16.965Z,1.00
2018-12-11T23:07:45.414Z,0.97
2018-12-11T23:10:13.876Z,0.95
2018-12-11T23:12:42.402Z,0.96
2018-12-11T23:15:10.846Z,0.96
2018-12-11T23:17:39.573Z,0.96
2018-12-11T23:20:08.027Z,0.93
2018-12-11T23:22:37.186Z,0.95
2018-12-11T23:25:05.913Z,0.95
2018-12-11T23:27:34.378Z,0.91
2018-12-11T23:30:02.873Z,0.98
2018-12-11T23:32:32.363Z,1.09
2018-12-11T23:35:01.041Z,1.11
2018-12-11T23:37:29.482Z,1.19
2018-12-11T23:39:58.012Z,1.31
2018-12-11T23:42:26.488Z,0.67
2018-12-11T23:44:54.923Z,1.40
2018-12-11T23:47:23.922Z,1.42
2018-12-11T23:49:52.418Z,1.44
2018-12-11T23:52:20.853Z,1.45
2018-12-11T23:54:49.283Z,1.46
2018-12-11T23:57:17.762Z,1.47
2018-12-11T23:59:46.191Z,1.51
